createdAt,value
2018-07-10T00:02:36.133Z,1.10
2018-07-10T00:07:59.935Z,1.10
2018-07-10T00:10:46.601Z,0.80
2018-07-10T00:13:18.328Z,1.17
2018-07-10T00:15:49.813Z,1.00
2018-07-10T00:18:22.071Z,1.20
2018-07-10T00:20:53.736Z,0.93
2018-07-10T00:23:25.238Z,0.77
2018-07-10T00:25:56.710Z,0.90
2018-07-10T00:28:28.491Z,0.83
2018-07-10T00:31:00.445Z,0.70
2018-07-10T00:33:32.069Z,1.10
2018-07-10T00:36:03.894Z,1.20
2018-07-10T00:38:52.217Z,0.97
2018-07-10T00:41:28.694Z,1.00
2018-07-10T00:44:01.489Z,1.20
2018-07-10T00:46:36.368Z,0.97
2018-07-10T00:49:08.867Z,1.00
2018-07-10T00:51:41.924Z,1.00
2018-07-10T00:54:13.540Z,1.03
2018-07-10T00:56:45.133Z,1.10
2018-07-10T00:59:17.132Z,1.10
2018-07-10T01:01:48.632Z,0.90
2018-07-10T01:04:20.282Z,0.80
2018-07-10T01:06:52.109Z,0.97
2018-07-10T01:09:23.717Z,0.97
2018-07-10T01:11:56.027Z,1.47
2018-07-10T01:14:27.877Z,1.00
2018-07-10T01:16:59.901Z,0.80
2018-07-10T01:19:31.537Z,0.90
2018-07-10T01:22:03.273Z,1.10
2018-07-10T01:24:35.381Z,0.70
2018-07-10T01:27:07.771Z,0.83
2018-07-10T01:29:44.551Z,1.00
2018-07-10T01:32:16.351Z,1.03
2018-07-10T01:34:48.292Z,0.80
2018-07-10T01:37:20.139Z,1.00
2018-07-10T01:39:51.749Z,0.93
2018-07-10T01:42:23.370Z,0.87
2018-07-10T01:44:55.658Z,0.97
2018-07-10T01:47:27.201Z,0.93
2018-07-10T01:49:59.882Z,0.83
2018-07-10T01:52:31.921Z,0.90
2018-07-10T01:55:03.847Z,0.90
2018-07-10T01:57:35.100Z,0.73
2018-07-10T02:00:06.677Z,0.83
2018-07-10T02:02:38.310Z,0.70
2018-07-10T02:05:10.184Z,1.00
2018-07-10T02:07:41.946Z,0.80
2018-07-10T02:10:14.228Z,0.90
2018-07-10T02:12:46.262Z,0.87
2018-07-10T02:15:18.293Z,1.00
2018-07-10T02:17:49.933Z,0.90
2018-07-10T02:20:22.291Z,0.77
2018-07-10T02:22:54.587Z,6.20
2018-07-10T02:25:26.140Z,1.10
2018-07-10T02:27:58.176Z,0.77
2018-07-10T02:30:29.922Z,1.10
2018-07-10T02:33:02.093Z,1.10
2018-07-10T02:35:33.728Z,1.10
2018-07-10T02:38:05.294Z,1.00
2018-07-10T02:40:37.486Z,1.20
2018-07-10T02:43:09.056Z,0.90
2018-07-10T02:45:41.217Z,1.00
2018-07-10T02:48:13.410Z,1.00
2018-07-10T02:50:46.612Z,1.00
2018-07-10T02:53:18.258Z,0.80
2018-07-10T02:55:50.097Z,0.80
2018-07-10T02:58:25.910Z,0.70
2018-07-10T03:00:57.397Z,1.30
2018-07-10T03:03:28.967Z,1.43
2018-07-10T03:06:00.525Z,1.57
2018-07-10T03:08:32.178Z,1.20
2018-07-10T03:11:04.100Z,1.07
2018-07-10T03:13:36.467Z,0.90
2018-07-10T03:16:08.216Z,1.10
2018-07-10T03:18:40.648Z,1.20
2018-07-10T03:21:12.202Z,1.23
2018-07-10T03:23:43.920Z,1.50
2018-07-10T03:26:15.785Z,1.30
2018-07-10T03:28:47.364Z,1.17
2018-07-10T03:31:19.120Z,1.20
2018-07-10T03:33:50.707Z,0.90
2018-07-10T03:36:22.838Z,1.03
2018-07-10T03:38:54.932Z,1.00
2018-07-10T03:41:27.036Z,1.10
2018-07-10T03:43:59.012Z,2.13
2018-07-10T03:46:31.023Z,1.80
2018-07-10T03:49:02.838Z,1.30
2018-07-10T03:51:35.009Z,1.60
2018-07-10T03:54:07.220Z,1.50
2018-07-10T03:56:38.873Z,1.57
2018-07-10T03:59:10.578Z,1.27
2018-07-10T04:01:42.962Z,1.40
2018-07-10T04:04:15.635Z,1.40
2018-07-10T04:06:47.328Z,1.33
2018-07-10T04:09:19.254Z,1.47
2018-07-10T04:11:51.588Z,1.73
2018-07-10T04:14:25.803Z,1.27
2018-07-10T04:16:57.537Z,1.37
2018-07-10T04:19:30.658Z,1.40
2018-07-10T04:22:03.554Z,1.53
2018-07-10T04:24:35.491Z,1.30
2018-07-10T04:27:16.229Z,1.50
2018-07-10T04:30:34.646Z,1.40
2018-07-10T04:33:07.218Z,1.30
2018-07-10T04:35:39.213Z,1.50
2018-07-10T04:38:11.890Z,1.60
2018-07-10T04:40:43.556Z,1.20
2018-07-10T04:43:20.774Z,1.20
2018-07-10T04:45:57.357Z,2.23
2018-07-10T04:48:47.048Z,1.40
2018-07-10T04:51:33.753Z,1.77
2018-07-10T04:54:27.093Z,1.37
2018-07-10T04:57:10.105Z,1.17
2018-07-10T04:59:41.586Z,1.43
2018-07-10T05:02:14.749Z,1.60
2018-07-10T05:04:46.341Z,1.60
2018-07-10T05:07:17.921Z,1.70
2018-07-10T05:09:49.969Z,1.90
2018-07-10T05:12:21.945Z,1.40
2018-07-10T05:14:54.580Z,1.30
2018-07-10T05:17:26.288Z,1.10
2018-07-10T05:19:58.120Z,0.90
2018-07-10T05:22:30.892Z,1.03
2018-07-10T05:25:03.011Z,1.30
2018-07-10T05:27:34.847Z,1.60
2018-07-10T05:30:06.761Z,1.60
2018-07-10T05:32:38.600Z,1.37
2018-07-10T05:35:10.738Z,1.70
2018-07-10T05:37:42.525Z,1.27
2018-07-10T05:40:14.498Z,1.50
2018-07-10T05:42:48.314Z,1.30
2018-07-10T05:45:24.446Z,1.53
2018-07-10T05:48:01.754Z,1.63
2018-07-10T05:50:38.167Z,1.63
2018-07-10T05:53:12.606Z,1.97
2018-07-10T05:55:49.679Z,1.10
2018-07-10T05:58:22.563Z,1.90
2018-07-10T06:00:55.732Z,1.83
2018-07-10T06:03:29.941Z,1.93
2018-07-10T06:06:02.100Z,2.33
2018-07-10T06:08:33.922Z,1.23
2018-07-10T06:11:05.715Z,2.20
2018-07-10T06:13:37.498Z,3.40
2018-07-10T06:16:09.381Z,1.50
2018-07-10T06:18:41.349Z,1.70
2018-07-10T06:21:13.024Z,3.17
2018-07-10T06:23:45.462Z,2.60
2018-07-10T06:26:17.458Z,2.20
2018-07-10T06:28:59.077Z,2.73
2018-07-10T06:31:35.182Z,5.23
2018-07-10T06:34:07.187Z,3.73
2018-07-10T06:36:49.107Z,1.90
2018-07-10T06:39:21.039Z,2.30
2018-07-10T06:42:05.146Z,2.03
2018-07-10T06:44:39.469Z,2.40
2018-07-10T06:47:47.548Z,3.30
2018-07-10T06:50:22.107Z,2.53
2018-07-10T06:52:54.284Z,2.37
2018-07-10T06:55:25.988Z,2.20
2018-07-10T06:57:58.840Z,2.17
2018-07-10T07:00:30.621Z,1.70
2018-07-10T07:03:03.315Z,1.83
2018-07-10T07:05:35.045Z,2.10
2018-07-10T07:08:07.379Z,2.57
2018-07-10T07:10:40.526Z,2.53
2018-07-10T07:13:12.005Z,1.93
2018-07-10T07:15:43.566Z,2.33
2018-07-10T07:18:15.775Z,2.07
2018-07-10T07:20:47.668Z,2.33
2018-07-10T07:23:19.607Z,1.90
2018-07-10T07:25:51.842Z,1.20
2018-07-10T07:28:23.523Z,1.63
2018-07-10T07:30:56.074Z,1.70
2018-07-10T07:33:27.269Z,1.70
2018-07-10T07:35:58.666Z,1.60
2018-07-10T07:38:30.514Z,1.20
2018-07-10T07:41:02.182Z,0.87
2018-07-10T07:43:35.742Z,1.40
2018-07-10T07:46:07.636Z,1.30
2018-07-10T07:48:39.234Z,1.37
2018-07-10T07:51:10.965Z,0.97
2018-07-10T07:53:43.374Z,1.57
2018-07-10T07:56:15.712Z,1.70
2018-07-10T07:58:47.512Z,1.73
2018-07-10T08:01:18.763Z,1.43
2018-07-10T08:03:50.366Z,1.40
2018-07-10T08:06:21.953Z,1.40
2018-07-10T08:08:53.668Z,1.20
2018-07-10T08:11:25.298Z,1.67
2018-07-10T08:13:56.786Z,1.07
2018-07-10T08:16:28.570Z,1.10
2018-07-10T08:19:00.108Z,1.07
2018-07-10T08:21:31.907Z,1.20
2018-07-10T08:24:04.053Z,1.17
2018-07-10T08:26:35.963Z,1.43
2018-07-10T08:29:07.614Z,1.40
2018-07-10T08:31:39.642Z,1.20
2018-07-10T08:34:11.285Z,1.67
2018-07-10T08:36:43.791Z,1.50
2018-07-10T08:39:15.887Z,1.93
2018-07-10T08:41:48.913Z,1.70
2018-07-10T08:44:21.611Z,1.37
2018-07-10T08:46:56.180Z,1.30
2018-07-10T08:49:34.325Z,1.33
2018-07-10T08:52:10.636Z,1.77
2018-07-10T08:54:42.562Z,1.63
2018-07-10T08:57:14.345Z,1.30
2018-07-10T08:59:45.663Z,1.40
2018-07-10T09:02:17.665Z,1.83
2018-07-10T09:04:50.015Z,1.27
2018-07-10T09:07:21.383Z,1.97
2018-07-10T09:09:53.269Z,1.50
2018-07-10T09:12:25.661Z,1.70
2018-07-10T09:14:57.607Z,2.47
2018-07-10T09:17:30.180Z,1.37
2018-07-10T09:20:04.545Z,1.40
2018-07-10T09:22:36.375Z,1.23
2018-07-10T09:25:08.198Z,1.50
2018-07-10T09:27:39.769Z,1.20
2018-07-10T09:30:11.414Z,1.27
2018-07-10T09:32:45.222Z,1.10
2018-07-10T09:35:17.245Z,1.50
2018-07-10T09:37:49.293Z,1.30
2018-07-10T09:40:22.555Z,1.10
2018-07-10T09:42:59.526Z,1.30
2018-07-10T09:45:34.866Z,1.43
2018-07-10T09:48:07.398Z,1.50
2018-07-10T09:50:40.222Z,1.50
2018-07-10T09:53:11.896Z,1.30
2018-07-10T09:55:43.853Z,1.40
2018-07-10T09:58:15.768Z,1.63
2018-07-10T10:00:52.949Z,1.47
2018-07-10T10:03:25.085Z,1.30
2018-07-10T10:05:57.656Z,1.67
2018-07-10T10:08:29.415Z,1.63
2018-07-10T10:11:01.536Z,1.50
2018-07-10T10:13:33.124Z,1.30
2018-07-10T10:16:05.162Z,1.60
2018-07-10T10:18:37.114Z,1.33
2018-07-10T10:21:08.959Z,1.20
2018-07-10T10:23:41.252Z,1.50
2018-07-10T10:26:14.989Z,1.33
2018-07-10T10:28:46.707Z,1.70
2018-07-10T10:31:18.578Z,1.50
2018-07-10T10:33:50.842Z,1.90
2018-07-10T10:36:24.239Z,1.70
2018-07-10T10:38:56.474Z,2.20
2018-07-10T10:41:28.481Z,1.87
2018-07-10T10:44:00.149Z,1.50
2018-07-10T10:46:33.200Z,2.27
2018-07-10T10:49:05.032Z,1.90
2018-07-10T10:51:36.904Z,1.90
2018-07-10T10:54:08.615Z,2.00
2018-07-10T10:56:40.298Z,3.03
2018-07-10T10:59:12.010Z,3.37
2018-07-10T11:01:43.733Z,2.60
2018-07-10T11:04:15.473Z,2.20
2018-07-10T11:06:47.364Z,2.10
2018-07-10T11:09:18.584Z,2.13
2018-07-10T11:11:50.434Z,2.47
2018-07-10T11:14:22.085Z,2.23
2018-07-10T11:16:53.717Z,2.53
2018-07-10T11:19:34.491Z,2.60
2018-07-10T11:22:13.136Z,2.10
2018-07-10T11:25:11.480Z,1.90
2018-07-10T11:28:09.973Z,1.83
2018-07-10T11:30:41.621Z,2.20
2018-07-10T11:33:13.596Z,1.60
2018-07-10T11:35:45.176Z,2.03
2018-07-10T11:38:16.861Z,2.73
2018-07-10T11:40:48.765Z,2.97
2018-07-10T11:43:20.414Z,2.57
2018-07-10T11:45:52.103Z,2.40
2018-07-10T11:48:24.237Z,2.23
2018-07-10T11:50:56.561Z,2.37
2018-07-10T11:53:28.384Z,3.63
2018-07-10T11:56:00.373Z,2.70
2018-07-10T11:58:32.031Z,2.00
2018-07-10T12:01:04.209Z,2.70
2018-07-10T12:03:38.776Z,1.70
2018-07-10T12:06:11.453Z,1.53
2018-07-10T12:08:48.885Z,2.20
2018-07-10T12:11:20.676Z,1.70
2018-07-10T12:13:52.766Z,1.70
2018-07-10T12:16:24.846Z,1.70
2018-07-10T12:18:56.921Z,1.77
2018-07-10T12:21:28.715Z,1.53
2018-07-10T12:24:00.327Z,1.67
2018-07-10T12:26:31.800Z,2.23
2018-07-10T12:29:03.579Z,2.50
2018-07-10T12:31:35.542Z,2.90
2018-07-10T12:34:07.204Z,3.13
2018-07-10T12:36:39.164Z,3.67
2018-07-10T12:39:10.698Z,3.47
2018-07-10T12:41:42.384Z,3.53
2018-07-10T12:44:14.325Z,2.77
2018-07-10T12:46:46.230Z,3.13
2018-07-10T12:49:17.939Z,2.90
2018-07-10T12:51:49.759Z,2.63
2018-07-10T12:54:21.423Z,2.93
2018-07-10T12:56:53.304Z,2.83
2018-07-10T12:59:25.612Z,2.67
2018-07-10T13:01:57.662Z,2.30
2018-07-10T13:04:29.507Z,2.33
2018-07-10T13:07:01.674Z,2.10
2018-07-10T13:09:33.708Z,2.60
2018-07-10T13:12:05.689Z,2.37
2018-07-10T13:14:37.370Z,2.83
2018-07-10T13:17:09.621Z,2.60
2018-07-10T13:19:41.861Z,2.70
2018-07-10T13:22:13.357Z,2.73
2018-07-10T13:24:44.857Z,2.60
2018-07-10T13:27:16.541Z,2.80
2018-07-10T13:29:48.828Z,2.93
2018-07-10T13:32:21.035Z,3.03
2018-07-10T13:34:52.861Z,2.67
2018-07-10T13:37:27.211Z,2.60
2018-07-10T13:40:03.762Z,3.10
2018-07-10T13:42:48.733Z,2.80
2018-07-10T13:45:22.650Z,3.07
2018-07-10T13:47:54.358Z,3.23
2018-07-10T13:50:30.208Z,3.47
2018-07-10T13:53:03.563Z,3.03
2018-07-10T13:55:35.071Z,2.83
2018-07-10T13:58:18.961Z,3.27
2018-07-10T14:01:01.003Z,3.07
2018-07-10T14:03:32.462Z,2.87
2018-07-10T14:06:04.473Z,3.97
2018-07-10T14:08:36.113Z,3.37
2018-07-10T14:11:08.129Z,2.97
2018-07-10T14:13:39.917Z,3.37
2018-07-10T14:16:11.685Z,3.30
2018-07-10T14:18:44.934Z,3.57
2018-07-10T14:21:16.827Z,3.53
2018-07-10T14:23:48.887Z,3.13
2018-07-10T14:26:20.153Z,3.40
2018-07-10T14:28:51.455Z,3.30
2018-07-10T14:31:23.430Z,3.17
2018-07-10T14:33:55.230Z,3.10
2018-07-10T14:36:27.097Z,3.00
2018-07-10T14:38:59.237Z,3.57
2018-07-10T14:41:31.243Z,2.60
2018-07-10T14:44:03.088Z,2.93
2018-07-10T14:46:34.941Z,3.27
2018-07-10T14:49:06.502Z,3.60
2018-07-10T14:51:49.328Z,3.53
2018-07-10T14:54:21.449Z,5.90
2018-07-10T14:56:54.273Z,6.63
2018-07-10T14:59:26.060Z,3.97
2018-07-10T15:01:58.034Z,3.40
2018-07-10T15:04:30.441Z,3.37
2018-07-10T15:07:02.018Z,3.23
2018-07-10T15:09:34.732Z,3.60
2018-07-10T15:12:06.413Z,3.97
2018-07-10T15:14:38.368Z,4.33
2018-07-10T15:17:15.947Z,4.27
2018-07-10T15:19:48.154Z,4.30
2018-07-10T15:22:19.745Z,4.17
2018-07-10T15:24:51.766Z,3.70
2018-07-10T15:27:23.649Z,3.83
2018-07-10T15:29:55.855Z,3.33
2018-07-10T15:32:27.944Z,3.40
2018-07-10T15:34:59.547Z,3.23
2018-07-10T15:37:31.262Z,3.33
2018-07-10T15:40:03.445Z,3.97
2018-07-10T15:42:35.125Z,3.67
2018-07-10T15:45:06.689Z,3.73
2018-07-10T15:47:38.142Z,4.20
2018-07-10T15:50:10.171Z,3.40
2018-07-10T15:52:42.027Z,4.10
2018-07-10T15:55:13.652Z,3.70
2018-07-10T15:57:44.741Z,4.23
2018-07-10T16:00:16.345Z,4.10
2018-07-10T16:02:47.752Z,4.10
2018-07-10T16:05:19.943Z,4.13
2018-07-10T16:07:52.429Z,3.90
2018-07-10T16:10:24.504Z,4.30
2018-07-10T16:12:56.589Z,4.30
2018-07-10T16:15:28.251Z,4.17
2018-07-10T16:18:00.493Z,3.97
2018-07-10T16:20:35.290Z,4.03
2018-07-10T16:23:10.130Z,4.03
2018-07-10T16:25:43.651Z,4.10
2018-07-10T16:28:19.354Z,4.17
2018-07-10T16:30:51.601Z,5.40
2018-07-10T16:33:31.264Z,3.70
2018-07-10T16:36:06.438Z,4.50
2018-07-10T16:38:39.611Z,3.00
2018-07-10T16:41:20.564Z,2.67
2018-07-10T16:43:53.898Z,2.70
2018-07-10T16:46:28.328Z,2.97
2018-07-10T16:50:06.373Z,3.17
2018-07-10T16:52:57.289Z,2.80
2018-07-10T16:55:29.509Z,2.53
2018-07-10T16:58:01.731Z,3.30
2018-07-10T17:00:33.704Z,2.87
2018-07-10T17:03:05.264Z,3.30
2018-07-10T17:05:36.744Z,2.50
2018-07-10T17:08:08.580Z,2.50
2018-07-10T17:10:40.282Z,3.50
2018-07-10T17:13:11.769Z,3.50
2018-07-10T17:15:43.633Z,2.60
2018-07-10T17:18:16.471Z,2.70
2018-07-10T17:20:48.815Z,2.77
2018-07-10T17:23:21.042Z,2.80
2018-07-10T17:25:52.627Z,2.63
2018-07-10T17:28:24.750Z,3.20
2018-07-10T17:30:57.311Z,2.60
2018-07-10T17:33:28.835Z,9.23
2018-07-10T17:36:00.513Z,3.10
2018-07-10T17:38:32.521Z,2.13
2018-07-10T17:41:05.630Z,1.67
2018-07-10T17:43:37.919Z,1.60
2018-07-10T17:46:09.917Z,1.40
2018-07-10T17:48:41.572Z,1.60
2018-07-10T17:51:13.493Z,1.43
2018-07-10T17:53:45.146Z,1.70
2018-07-10T17:56:17.429Z,1.43
2018-07-10T17:58:49.281Z,1.30
2018-07-10T18:01:21.227Z,1.80
2018-07-10T18:03:52.951Z,1.40
2018-07-10T18:06:25.053Z,1.50
2018-07-10T18:08:57.135Z,1.60
2018-07-10T18:11:29.099Z,1.40
2018-07-10T18:14:01.634Z,1.67
2018-07-10T18:16:34.907Z,1.67
2018-07-10T18:19:06.781Z,1.80
2018-07-10T18:21:38.572Z,2.13
2018-07-10T18:24:10.208Z,2.00
2018-07-10T18:26:42.566Z,2.30
2018-07-10T18:29:14.412Z,2.50
2018-07-10T18:31:46.078Z,1.97
2018-07-10T18:34:17.722Z,2.30
2018-07-10T18:36:49.772Z,2.30
2018-07-10T18:39:21.825Z,2.03
2018-07-10T18:41:53.918Z,1.80
2018-07-10T18:44:26.199Z,1.77
2018-07-10T18:46:57.921Z,1.80
2018-07-10T18:49:29.266Z,2.10
2018-07-10T18:52:00.871Z,2.30
2018-07-10T18:54:37.363Z,1.90
2018-07-10T18:57:37.556Z,1.83
2018-07-10T19:00:09.246Z,1.87
2018-07-10T19:02:58.400Z,1.57
2018-07-10T19:05:29.735Z,1.80
2018-07-10T19:08:01.548Z,1.90
2018-07-10T19:10:33.452Z,1.90
2018-07-10T19:13:06.252Z,1.70
2018-07-10T19:15:38.586Z,1.83
2018-07-10T19:18:11.018Z,1.83
2018-07-10T19:20:56.960Z,2.20
2018-07-10T19:23:39.143Z,1.63
2018-07-10T19:26:11.848Z,1.57
2018-07-10T19:28:46.261Z,1.97
2018-07-10T19:31:23.050Z,1.60
2018-07-10T19:33:56.977Z,1.47
2018-07-10T19:36:28.711Z,1.33
2018-07-10T19:39:05.150Z,1.10
2018-07-10T19:41:37.152Z,1.17
2018-07-10T19:44:09.359Z,1.13
2018-07-10T19:46:40.770Z,1.10
2018-07-10T19:49:12.508Z,1.10
2018-07-10T19:51:45.276Z,0.80
2018-07-10T19:54:17.403Z,0.93
2018-07-10T19:56:49.622Z,0.70
2018-07-10T19:59:21.802Z,0.73
2018-07-10T20:01:59.614Z,0.80
2018-07-10T20:04:40.488Z,0.80
2018-07-10T20:07:21.509Z,0.70
2018-07-10T20:10:06.230Z,0.67
2018-07-10T20:12:45.202Z,0.70
2018-07-10T20:15:34.364Z,0.80
2018-07-10T20:18:21.104Z,0.70
2018-07-10T20:21:04.697Z,0.70
2018-07-10T20:24:18.067Z,0.80
2018-07-10T20:28:06.298Z,0.80
2018-07-10T20:31:01.037Z,0.73
2018-07-10T20:33:46.231Z,0.80
2018-07-10T20:36:23.945Z,0.70
2018-07-10T20:38:57.872Z,0.87
2018-07-10T20:41:43.924Z,1.00
2018-07-10T20:44:19.761Z,0.70
2018-07-10T20:47:01.037Z,0.70
2018-07-10T20:50:05.135Z,0.73
2018-07-10T20:54:05.872Z,0.70
2018-07-10T20:58:16.916Z,0.60
2018-07-10T21:01:01.196Z,0.60
2018-07-10T21:03:51.853Z,0.63
2018-07-10T21:06:37.394Z,0.57
2018-07-10T21:09:13.124Z,0.70
2018-07-10T21:12:04.969Z,0.60
2018-07-10T21:15:16.253Z,0.70
2018-07-10T21:18:05.904Z,0.83
2018-07-10T21:20:52.161Z,0.80
2018-07-10T21:23:45.287Z,0.80
2018-07-10T21:26:43.979Z,0.70
2018-07-10T21:30:29.429Z,0.77
2018-07-10T21:33:10.709Z,0.50
2018-07-10T21:35:59.049Z,0.60
2018-07-10T21:38:46.224Z,0.60
2018-07-10T21:41:39.240Z,0.73
2018-07-10T21:44:57.213Z,0.80
2018-07-10T21:47:47.609Z,0.60
2018-07-10T21:50:28.285Z,0.70
2018-07-10T21:53:00.464Z,0.60
2018-07-10T21:55:32.146Z,1.00
2018-07-10T21:58:04.202Z,0.97
2018-07-10T22:02:02.050Z,0.73
2018-07-10T22:04:36.520Z,0.80
2018-07-10T22:07:13.549Z,0.70
2018-07-10T22:09:45.704Z,0.80
2018-07-10T22:12:21.399Z,0.90
2018-07-10T22:14:52.582Z,0.90
2018-07-10T22:17:26.069Z,0.60
2018-07-10T22:19:58.790Z,0.53
2018-07-10T22:22:32.724Z,0.60
2018-07-10T22:25:07.292Z,0.70
2018-07-10T22:27:41.666Z,0.70
2018-07-10T22:30:21.545Z,0.67
2018-07-10T22:32:55.238Z,0.90
2018-07-10T22:35:27.009Z,0.67
2018-07-10T22:37:58.673Z,0.77
2018-07-10T22:40:30.704Z,0.70
2018-07-10T22:43:02.284Z,0.60
2018-07-10T22:45:33.895Z,0.77
2018-07-10T22:48:05.834Z,0.73
2018-07-10T22:50:37.484Z,0.80
2018-07-10T22:53:08.778Z,0.80
2018-07-10T22:55:40.389Z,0.80
2018-07-10T22:58:12.275Z,0.67
2018-07-10T23:00:44.013Z,0.70
2018-07-10T23:03:20.672Z,0.83
2018-07-10T23:05:52.700Z,0.60
2018-07-10T23:08:29.729Z,0.90
2018-07-10T23:11:02.985Z,0.90
2018-07-10T23:13:39.340Z,0.67
2018-07-10T23:16:10.842Z,0.90
2018-07-10T23:18:43.810Z,0.80
2018-07-10T23:21:18.037Z,0.43
2018-07-10T23:23:49.285Z,0.83
2018-07-10T23:26:20.873Z,0.80
2018-07-10T23:28:54.712Z,0.70
2018-07-10T23:31:28.769Z,0.90
2018-07-10T23:34:13.892Z,1.00
2018-07-10T23:36:57.588Z,0.83
2018-07-10T23:39:46.622Z,0.90
2018-07-10T23:42:31.716Z,0.80
2018-07-10T23:45:14.081Z,0.73
2018-07-10T23:47:51.156Z,1.10
2018-07-10T23:50:32.534Z,1.10
2018-07-10T23:53:49.302Z,1.20
2018-07-10T23:56:21.426Z,1.17
2018-07-10T23:58:53.035Z,1.20
